createdAt,value
2019-06-26T00:00:50.836Z,19.80
2019-06-26T00:03:19.670Z,19.70
2019-06-26T00:05:48.424Z,19.70
2019-06-26T00:08:17.240Z,19.70
2019-06-26T00:10:46.063Z,19.60
2019-06-26T00:13:25.550Z,19.60
2019-06-26T00:15:45.421Z,19.60
2019-06-26T00:18:14.233Z,19.70
2019-06-26T00:20:42.974Z,19.70
2019-06-26T00:23:11.798Z,19.60
2019-06-26T00:25:40.474Z,19.60
2019-06-26T00:28:09.344Z,19.70
2019-06-26T00:30:38.048Z,19.60
2019-06-26T00:33:06.817Z,19.70
2019-06-26T00:35:35.559Z,19.70
2019-06-26T00:38:04.383Z,19.60
2019-06-26T00:40:33.480Z,19.70
2019-06-26T00:43:02.290Z,19.60
2019-06-26T00:45:31.176Z,19.60
2019-06-26T00:48:00.000Z,19.60
2019-06-26T00:50:28.797Z,19.60
2019-06-26T00:52:57.677Z,19.50
2019-06-26T00:55:26.452Z,19.50
2019-06-26T00:57:56.180Z,19.40
2019-06-26T01:00:25.625Z,19.40
2019-06-26T01:02:54.298Z,19.40
2019-06-26T01:05:23.157Z,19.40
2019-06-26T01:07:51.886Z,19.30
2019-06-26T01:10:22.202Z,19.20
2019-06-26T01:12:52.556Z,19.20
2019-06-26T01:15:21.427Z,19.20
2019-06-26T01:17:50.392Z,19.30
2019-06-26T01:20:19.324Z,19.30
2019-06-26T01:22:48.211Z,19.30
2019-06-26T01:25:17.831Z,19.30
2019-06-26T01:27:45.726Z,19.30
2019-06-26T01:30:14.961Z,19.20
2019-06-26T01:32:43.711Z,19.20
2019-06-26T01:35:13.220Z,19.20
2019-06-26T01:37:42.065Z,19.20
2019-06-26T01:40:30.175Z,19.20
2019-06-26T01:42:58.986Z,19.20
2019-06-26T01:45:27.734Z,19.20
2019-06-26T01:47:58.233Z,19.20
2019-06-26T01:50:26.939Z,19.20
2019-06-26T01:52:55.735Z,19.20
2019-06-26T01:55:26.311Z,19.20
2019-06-26T01:57:55.074Z,19.20
2019-06-26T02:00:24.919Z,19.20
2019-06-26T02:02:55.584Z,19.20
2019-06-26T02:05:24.134Z,19.20
2019-06-26T02:07:52.970Z,19.20
2019-06-26T02:10:21.998Z,19.10
2019-06-26T02:12:50.750Z,19.10
2019-06-26T02:15:19.769Z,19.10
2019-06-26T02:17:48.591Z,19.00
2019-06-26T02:20:17.423Z,19.10
2019-06-26T02:22:49.423Z,19.00
2019-06-26T02:25:16.801Z,19.10
2019-06-26T02:27:45.565Z,19.00
2019-06-26T02:30:15.197Z,19.10
2019-06-26T02:32:44.100Z,19.10
2019-06-26T02:35:13.261Z,19.10
2019-06-26T02:37:42.038Z,19.20
2019-06-26T02:40:30.156Z,19.30
2019-06-26T02:42:58.912Z,19.30
2019-06-26T02:45:27.722Z,19.40
2019-06-26T02:47:56.473Z,19.40
2019-06-26T02:50:25.228Z,19.40
2019-06-26T02:52:55.211Z,19.30
2019-06-26T02:55:24.040Z,19.40
2019-06-26T02:57:53.813Z,19.40
2019-06-26T03:00:21.944Z,19.60
2019-06-26T03:02:50.700Z,19.60
2019-06-26T03:05:19.475Z,19.70
2019-06-26T03:07:48.226Z,19.70
2019-06-26T03:10:17.136Z,19.70
2019-06-26T03:12:45.968Z,19.90
2019-06-26T03:15:15.066Z,19.80
2019-06-26T03:17:54.634Z,19.70
2019-06-26T03:20:14.607Z,19.80
2019-06-26T03:22:43.356Z,19.90
2019-06-26T03:25:12.455Z,19.80
2019-06-26T03:27:41.144Z,19.80
2019-06-26T03:30:10.268Z,19.70
2019-06-26T03:32:38.998Z,19.70
2019-06-26T03:35:07.844Z,19.70
2019-06-26T03:37:36.594Z,19.60
2019-06-26T03:40:08.294Z,19.70
2019-06-26T03:42:37.175Z,19.60
2019-06-26T03:45:06.870Z,19.70
2019-06-26T03:47:34.775Z,19.70
2019-06-26T03:50:04.993Z,19.70
2019-06-26T03:52:33.736Z,19.70
2019-06-26T03:55:03.671Z,19.70
2019-06-26T03:57:35.262Z,19.70
2019-06-26T04:00:03.702Z,19.80
2019-06-26T04:02:31.565Z,19.80
2019-06-26T04:05:00.306Z,19.80
2019-06-26T04:07:29.156Z,20.00
2019-06-26T04:09:59.206Z,20.00
2019-06-26T04:12:28.052Z,20.00
2019-06-26T04:14:56.870Z,20.00
2019-06-26T04:17:25.700Z,20.10
2019-06-26T04:19:54.530Z,20.20
2019-06-26T04:22:25.142Z,20.20
2019-06-26T04:24:53.845Z,20.40
2019-06-26T04:27:22.738Z,20.60
2019-06-26T04:29:51.719Z,20.70
2019-06-26T04:32:20.570Z,21.00
2019-06-26T04:34:54.552Z,21.10
2019-06-26T04:37:23.552Z,21.20
2019-06-26T04:39:53.602Z,21.20
2019-06-26T04:42:22.352Z,21.50
2019-06-26T04:44:51.207Z,21.60
2019-06-26T04:47:20.073Z,21.60
2019-06-26T04:49:48.878Z,21.50
2019-06-26T04:52:17.652Z,21.50
2019-06-26T04:54:46.476Z,21.40
2019-06-26T04:57:15.292Z,21.30
2019-06-26T04:59:44.130Z,21.30
2019-06-26T05:02:12.858Z,21.50
2019-06-26T05:04:41.715Z,21.50
2019-06-26T05:07:10.532Z,21.50
2019-06-26T05:09:40.523Z,21.60
2019-06-26T05:12:09.217Z,21.90
2019-06-26T05:14:37.976Z,22.40
2019-06-26T05:17:06.738Z,22.80
2019-06-26T05:19:35.628Z,22.60
2019-06-26T05:22:04.577Z,22.30
2019-06-26T05:24:33.521Z,21.90
2019-06-26T05:27:02.268Z,22.00
2019-06-26T05:29:31.098Z,22.30
2019-06-26T05:31:59.984Z,22.60
2019-06-26T05:34:28.731Z,22.70
2019-06-26T05:36:59.464Z,22.70
2019-06-26T05:39:28.165Z,22.90
2019-06-26T05:41:56.996Z,22.50
2019-06-26T05:44:25.752Z,22.30
2019-06-26T05:46:54.712Z,22.20
2019-06-26T05:49:23.494Z,21.90
2019-06-26T05:51:52.323Z,22.30
2019-06-26T05:54:21.019Z,22.00
2019-06-26T05:56:49.933Z,22.40
2019-06-26T05:59:18.717Z,22.60
2019-06-26T06:01:47.437Z,22.80
2019-06-26T06:04:16.127Z,23.00
2019-06-26T06:06:45.046Z,23.40
2019-06-26T06:09:13.843Z,23.50
2019-06-26T06:11:42.686Z,23.20
2019-06-26T06:14:11.421Z,23.10
2019-06-26T06:16:47.281Z,23.00
2019-06-26T06:19:10.867Z,22.90
2019-06-26T06:21:39.659Z,22.70
2019-06-26T06:24:08.522Z,22.50
2019-06-26T06:26:37.438Z,22.70
2019-06-26T06:29:06.201Z,23.00
2019-06-26T06:31:35.032Z,23.20
2019-06-26T06:34:03.744Z,23.60
2019-06-26T06:36:32.547Z,23.40
2019-06-26T06:39:01.303Z,23.20
2019-06-26T06:41:31.991Z,23.00
2019-06-26T06:44:02.327Z,22.90
2019-06-26T06:46:31.284Z,22.70
2019-06-26T06:49:00.105Z,22.60
2019-06-26T06:51:32.110Z,22.90
2019-06-26T06:54:00.962Z,23.00
2019-06-26T06:56:30.389Z,23.30
2019-06-26T06:58:59.207Z,23.40
2019-06-26T07:01:27.960Z,23.60
2019-06-26T07:03:56.759Z,23.70
2019-06-26T07:06:25.587Z,23.80
2019-06-26T07:08:54.419Z,23.90
2019-06-26T07:11:23.153Z,24.10
2019-06-26T07:13:51.984Z,24.30
2019-06-26T07:16:20.830Z,24.40
2019-06-26T07:18:49.653Z,23.90
2019-06-26T07:21:18.512Z,23.80
2019-06-26T07:23:47.317Z,23.90
2019-06-26T07:26:16.128Z,23.90
2019-06-26T07:28:44.904Z,23.80
2019-06-26T07:31:13.650Z,24.10
2019-06-26T07:33:42.558Z,23.90
2019-06-26T07:36:11.410Z,24.00
2019-06-26T07:38:40.380Z,23.70
2019-06-26T07:41:09.032Z,23.70
2019-06-26T07:43:37.771Z,23.70
2019-06-26T07:46:06.693Z,23.80
2019-06-26T07:48:35.504Z,23.80
2019-06-26T07:51:04.185Z,24.10
2019-06-26T07:53:33.090Z,24.80
2019-06-26T07:56:01.780Z,26.20
2019-06-26T07:58:30.646Z,26.70
2019-06-26T08:00:59.415Z,27.40
2019-06-26T08:03:28.259Z,28.30
2019-06-26T08:05:56.949Z,28.90
2019-06-26T08:08:25.625Z,29.90
2019-06-26T08:10:54.375Z,31.00
2019-06-26T08:13:25.192Z,32.20
2019-06-26T08:15:54.090Z,32.10
2019-06-26T08:18:21.992Z,32.90
2019-06-26T08:21:10.614Z,33.00
2019-06-26T08:23:21.137Z,32.20
2019-06-26T08:25:49.927Z,30.20
2019-06-26T08:28:18.607Z,30.70
2019-06-26T08:30:47.379Z,31.60
2019-06-26T08:33:16.121Z,31.20
2019-06-26T08:35:44.864Z,31.10
2019-06-26T08:38:15.631Z,31.00
2019-06-26T08:40:44.052Z,30.30
2019-06-26T08:43:12.862Z,30.40
2019-06-26T08:45:41.625Z,30.40
2019-06-26T08:48:19.233Z,30.00
2019-06-26T08:50:40.807Z,29.60
2019-06-26T08:53:09.529Z,29.30
2019-06-26T08:55:38.308Z,29.80
2019-06-26T08:58:07.193Z,29.90
2019-06-26T09:00:36.087Z,29.80
2019-06-26T09:03:05.356Z,28.80
2019-06-26T09:05:46.895Z,28.50
2019-06-26T09:08:05.637Z,28.10
2019-06-26T09:10:35.220Z,27.70
2019-06-26T09:13:05.044Z,27.70
2019-06-26T09:15:34.104Z,27.10
2019-06-26T09:18:02.856Z,26.80
2019-06-26T09:20:41.762Z,26.50
2019-06-26T09:23:10.611Z,26.10
2019-06-26T09:25:39.358Z,26.20
2019-06-26T09:28:09.877Z,26.50
2019-06-26T09:30:40.445Z,26.60
2019-06-26T09:33:09.243Z,26.50
2019-06-26T09:35:37.991Z,26.30
2019-06-26T09:38:06.741Z,26.60
2019-06-26T09:40:35.552Z,26.70
2019-06-26T09:43:05.446Z,26.80
2019-06-26T09:45:34.143Z,26.70
2019-06-26T09:48:04.827Z,26.70
2019-06-26T09:50:33.354Z,26.50
2019-06-26T09:53:05.199Z,26.50
2019-06-26T09:55:32.571Z,26.40
2019-06-26T09:58:01.321Z,26.00
2019-06-26T10:00:30.881Z,26.20
2019-06-26T10:02:58.821Z,26.20
2019-06-26T10:05:27.596Z,26.30
2019-06-26T10:07:56.367Z,25.80
2019-06-26T10:10:25.167Z,25.70
2019-06-26T10:12:54.001Z,25.80
2019-06-26T10:15:22.831Z,25.80
2019-06-26T10:17:51.648Z,25.80
2019-06-26T10:20:21.117Z,25.80
2019-06-26T10:22:49.136Z,26.20
2019-06-26T10:25:18.047Z,26.10
2019-06-26T10:27:46.917Z,26.20
2019-06-26T10:30:16.371Z,26.20
2019-06-26T10:32:44.272Z,26.10
2019-06-26T10:35:14.306Z,26.20
2019-06-26T10:37:43.142Z,26.50
2019-06-26T10:40:15.972Z,26.80
2019-06-26T10:42:42.769Z,27.00
2019-06-26T10:45:11.911Z,26.60
2019-06-26T10:47:40.890Z,26.20
2019-06-26T10:50:09.809Z,26.40
2019-06-26T10:52:38.722Z,26.20
2019-06-26T10:55:09.381Z,26.20
2019-06-26T10:57:38.125Z,26.20
2019-06-26T11:00:11.448Z,25.80
2019-06-26T11:02:40.277Z,26.00
2019-06-26T11:05:09.707Z,26.00
2019-06-26T11:07:37.675Z,26.30
2019-06-26T11:10:10.023Z,26.20
2019-06-26T11:12:40.741Z,26.20
2019-06-26T11:15:09.438Z,26.00
2019-06-26T11:17:39.182Z,25.80
2019-06-26T11:20:09.740Z,26.00
2019-06-26T11:22:38.585Z,26.20
2019-06-26T11:25:07.926Z,26.30
2019-06-26T11:27:36.782Z,26.60
2019-06-26T11:30:10.881Z,26.70
2019-06-26T11:32:39.616Z,26.70
2019-06-26T11:35:08.842Z,26.50
2019-06-26T11:37:38.687Z,26.20
2019-06-26T11:40:07.987Z,26.10
2019-06-26T11:42:36.921Z,26.20
2019-06-26T11:45:07.928Z,26.60
2019-06-26T11:47:37.073Z,26.70
2019-06-26T11:50:07.697Z,26.60
2019-06-26T11:52:36.545Z,26.60
2019-06-26T11:55:09.588Z,26.70
2019-06-26T11:57:38.344Z,26.50
2019-06-26T12:00:12.456Z,26.70
2019-06-26T12:02:41.210Z,26.70
2019-06-26T12:05:10.441Z,26.60
2019-06-26T12:07:39.197Z,26.70
2019-06-26T12:10:08.769Z,26.80
2019-06-26T12:12:37.648Z,26.90
2019-06-26T12:15:07.588Z,26.60
2019-06-26T12:17:36.513Z,26.60
2019-06-26T12:20:17.879Z,26.80
2019-06-26T12:22:37.348Z,26.70
2019-06-26T12:25:07.012Z,26.80
2019-06-26T12:27:35.880Z,27.00
2019-06-26T12:30:06.625Z,27.10
2019-06-26T12:32:41.844Z,27.00
2019-06-26T12:35:06.653Z,27.10
2019-06-26T12:37:38.038Z,26.80
2019-06-26T12:40:07.204Z,26.70
2019-06-26T12:42:36.059Z,26.70
2019-06-26T12:45:08.781Z,26.80
2019-06-26T12:47:38.515Z,26.80
2019-06-26T12:50:08.530Z,26.60
2019-06-26T12:52:37.201Z,26.50
2019-06-26T12:55:06.724Z,26.60
2019-06-26T12:57:35.662Z,26.50
2019-06-26T13:00:07.229Z,26.60
2019-06-26T13:02:37.853Z,26.70
2019-06-26T13:05:07.249Z,26.60
2019-06-26T13:07:35.178Z,26.60
2019-06-26T13:10:07.529Z,26.60
2019-06-26T13:12:37.072Z,26.60
2019-06-26T13:15:08.386Z,26.30
2019-06-26T13:17:37.144Z,26.20
2019-06-26T13:20:10.070Z,26.20
2019-06-26T13:22:39.027Z,26.40
2019-06-26T13:25:09.500Z,26.30
2019-06-26T13:27:38.456Z,26.40
2019-06-26T13:30:08.210Z,26.40
2019-06-26T13:32:36.882Z,26.60
2019-06-26T13:35:07.000Z,26.60
2019-06-26T13:37:37.592Z,26.50
2019-06-26T13:40:07.367Z,26.40
2019-06-26T13:42:36.279Z,26.30
2019-06-26T13:45:07.164Z,26.20
2019-06-26T13:47:35.958Z,26.20
2019-06-26T13:50:06.660Z,26.10
2019-06-26T13:52:35.403Z,26.10
2019-06-26T13:55:04.624Z,26.20
2019-06-26T13:57:33.322Z,26.40
2019-06-26T14:00:02.148Z,26.50
2019-06-26T14:02:30.889Z,26.60
2019-06-26T14:04:59.690Z,26.40
2019-06-26T14:07:28.310Z,26.60
2019-06-26T14:09:57.068Z,26.70
2019-06-26T14:12:25.732Z,26.60
2019-06-26T14:14:57.837Z,26.60
2019-06-26T14:17:24.948Z,26.70
2019-06-26T14:19:53.697Z,26.80
2019-06-26T14:22:22.401Z,26.60
2019-06-26T14:24:54.133Z,26.60
2019-06-26T14:27:21.620Z,26.40
2019-06-26T14:29:50.443Z,26.50
2019-06-26T14:32:19.199Z,26.90
2019-06-26T14:34:49.899Z,27.00
2019-06-26T14:37:18.335Z,26.90
2019-06-26T14:39:47.160Z,26.70
2019-06-26T14:42:15.841Z,26.60
2019-06-26T14:44:44.700Z,26.70
2019-06-26T14:47:13.415Z,26.70
2019-06-26T14:49:42.163Z,26.80
2019-06-26T14:52:10.911Z,26.90
2019-06-26T14:54:39.601Z,26.60
2019-06-26T14:57:08.361Z,26.40
2019-06-26T14:59:37.038Z,26.20
2019-06-26T15:02:06.282Z,26.20
2019-06-26T15:04:34.938Z,26.20
2019-06-26T15:07:03.678Z,26.20
2019-06-26T15:09:32.497Z,26.10
2019-06-26T15:12:01.300Z,26.20
2019-06-26T15:14:30.049Z,26.10
2019-06-26T15:16:58.939Z,26.10
2019-06-26T15:19:27.666Z,26.20
2019-06-26T15:21:58.820Z,26.30
2019-06-26T15:24:26.838Z,26.20
2019-06-26T15:26:57.151Z,26.30
2019-06-26T15:29:26.088Z,26.10
2019-06-26T15:31:54.859Z,26.10
2019-06-26T15:34:26.193Z,25.80
2019-06-26T15:36:54.416Z,25.90
2019-06-26T15:39:23.162Z,25.90
2019-06-26T15:41:51.989Z,25.70
2019-06-26T15:44:20.929Z,25.70
2019-06-26T15:46:49.971Z,25.70
2019-06-26T15:49:18.744Z,25.80
2019-06-26T15:51:47.497Z,25.60
2019-06-26T15:54:18.340Z,25.70
2019-06-26T15:56:49.101Z,25.80
2019-06-26T15:59:18.717Z,25.80
2019-06-26T16:01:47.504Z,25.80
2019-06-26T16:04:16.174Z,25.80
2019-06-26T16:06:44.970Z,25.80
2019-06-26T16:09:13.773Z,25.90
2019-06-26T16:11:43.928Z,25.90
2019-06-26T16:14:12.749Z,25.80
2019-06-26T16:16:43.124Z,25.70
2019-06-26T16:19:17.200Z,25.70
2019-06-26T16:21:45.831Z,25.70
2019-06-26T16:24:14.702Z,25.70
2019-06-26T16:26:43.455Z,25.70
2019-06-26T16:29:12.208Z,25.70
2019-06-26T16:31:41.067Z,25.70
2019-06-26T16:34:09.823Z,25.70
2019-06-26T16:36:38.748Z,25.70
2019-06-26T16:39:08.315Z,25.80
2019-06-26T16:41:36.497Z,25.80
2019-06-26T16:44:06.033Z,25.70
2019-06-26T16:46:34.154Z,25.60
2019-06-26T16:49:02.957Z,25.60
2019-06-26T16:51:31.800Z,25.50
2019-06-26T16:54:00.480Z,25.50
2019-06-26T16:56:29.234Z,25.40
2019-06-26T16:59:02.616Z,25.40
2019-06-26T17:01:32.397Z,25.40
2019-06-26T17:04:01.085Z,25.30
2019-06-26T17:06:29.832Z,25.40
2019-06-26T17:08:58.717Z,25.30
2019-06-26T17:11:27.621Z,25.20
2019-06-26T17:13:56.463Z,25.10
2019-06-26T17:16:25.283Z,25.00
2019-06-26T17:18:54.115Z,25.00
2019-06-26T17:21:25.200Z,25.00
2019-06-26T17:23:55.838Z,25.00
2019-06-26T17:26:25.628Z,24.90
2019-06-26T17:28:54.555Z,25.00
2019-06-26T17:31:23.297Z,24.90
2019-06-26T17:33:52.056Z,25.00
2019-06-26T17:36:20.913Z,24.90
2019-06-26T17:38:49.807Z,24.90
2019-06-26T17:41:19.758Z,24.90
2019-06-26T17:43:48.608Z,24.80
2019-06-26T17:46:19.119Z,24.80
2019-06-26T17:48:47.928Z,24.80
2019-06-26T17:51:16.747Z,24.80
2019-06-26T17:53:45.557Z,24.70
2019-06-26T17:56:14.601Z,24.70
2019-06-26T17:58:43.336Z,24.60
2019-06-26T18:01:12.174Z,24.60
2019-06-26T18:03:40.929Z,24.70
2019-06-26T18:06:09.767Z,24.70
2019-06-26T18:08:38.617Z,24.70
2019-06-26T18:11:07.422Z,24.60
2019-06-26T18:13:36.238Z,24.60
2019-06-26T18:16:06.159Z,24.60
2019-06-26T18:18:34.979Z,24.50
2019-06-26T18:21:03.791Z,24.50
2019-06-26T18:23:37.734Z,24.40
2019-06-26T18:26:13.008Z,24.40
2019-06-26T18:28:33.644Z,24.30
2019-06-26T18:31:02.805Z,24.20
2019-06-26T18:33:31.650Z,24.10
2019-06-26T18:36:00.572Z,23.90
2019-06-26T18:38:29.335Z,23.90
2019-06-26T18:40:58.362Z,23.90
2019-06-26T18:43:29.221Z,23.80
2019-06-26T18:45:58.135Z,23.60
2019-06-26T18:48:26.949Z,23.50
2019-06-26T18:50:55.801Z,23.40
2019-06-26T18:53:24.655Z,23.30
2019-06-26T18:55:53.674Z,23.20
2019-06-26T18:58:22.419Z,23.20
2019-06-26T19:00:51.199Z,23.10
2019-06-26T19:03:20.053Z,23.00
2019-06-26T19:05:48.869Z,22.90
2019-06-26T19:08:17.573Z,22.80
2019-06-26T19:10:46.318Z,22.70
2019-06-26T19:13:19.945Z,22.70
2019-06-26T19:15:46.517Z,22.70
2019-06-26T19:18:14.564Z,22.60
2019-06-26T19:20:43.406Z,22.50
2019-06-26T19:23:12.437Z,22.50
2019-06-26T19:25:41.300Z,22.40
2019-06-26T19:28:10.126Z,22.60
2019-06-26T19:30:38.989Z,22.60
2019-06-26T19:33:08.477Z,22.50
2019-06-26T19:35:37.362Z,22.60
2019-06-26T19:38:06.152Z,22.50
2019-06-26T19:40:35.048Z,22.50
2019-06-26T19:43:05.199Z,22.50
2019-06-26T19:45:34.045Z,22.40
2019-06-26T19:48:02.951Z,22.40
2019-06-26T19:50:33.763Z,22.30
2019-06-26T19:53:04.104Z,22.20
2019-06-26T19:55:35.375Z,22.10
2019-06-26T19:58:05.323Z,22.10
2019-06-26T20:00:34.174Z,22.20
2019-06-26T20:03:02.973Z,22.10
2019-06-26T20:05:31.793Z,22.00
2019-06-26T20:08:00.480Z,21.90
2019-06-26T20:10:29.517Z,21.90
2019-06-26T20:12:58.428Z,21.80
2019-06-26T20:15:27.119Z,21.50
2019-06-26T20:17:55.970Z,21.30
2019-06-26T20:20:24.788Z,21.10
2019-06-26T20:22:55.128Z,20.80
2019-06-26T20:25:23.898Z,20.70
2019-06-26T20:27:56.877Z,20.60
2019-06-26T20:30:26.116Z,20.40
2019-06-26T20:32:54.919Z,20.40
2019-06-26T20:35:23.840Z,20.30
2019-06-26T20:37:52.704Z,20.30
2019-06-26T20:40:21.682Z,20.30
2019-06-26T20:42:50.616Z,20.30
2019-06-26T20:45:19.355Z,20.10
2019-06-26T20:47:48.208Z,20.10
2019-06-26T20:50:16.976Z,20.10
2019-06-26T20:52:45.859Z,20.10
2019-06-26T20:55:14.698Z,20.10
2019-06-26T20:57:43.565Z,20.00
2019-06-26T21:00:12.708Z,20.00
2019-06-26T21:03:36.340Z,20.00
2019-06-26T21:06:05.209Z,20.00
2019-06-26T21:08:34.078Z,20.00
2019-06-26T21:11:03.005Z,19.90
2019-06-26T21:13:31.809Z,19.90
2019-06-26T21:16:02.041Z,19.80
2019-06-26T21:18:31.994Z,19.70
2019-06-26T21:21:01.028Z,19.60
2019-06-26T21:23:29.894Z,19.40
2019-06-26T21:25:59.777Z,19.40
2019-06-26T21:28:30.578Z,19.30
2019-06-26T21:30:59.446Z,19.10
2019-06-26T21:33:28.194Z,19.20
2019-06-26T21:35:57.058Z,19.10
2019-06-26T21:38:25.907Z,19.10
2019-06-26T21:40:55.801Z,19.10
2019-06-26T21:43:24.582Z,19.20
2019-06-26T21:45:54.503Z,19.20
2019-06-26T21:48:23.415Z,19.20
2019-06-26T21:50:52.234Z,19.30
2019-06-26T21:53:20.986Z,19.30
2019-06-26T21:55:50.398Z,19.20
2019-06-26T21:58:20.068Z,19.10
2019-06-26T22:00:49.163Z,19.10
2019-06-26T22:03:18.070Z,19.00
2019-06-26T22:05:46.871Z,19.00
2019-06-26T22:08:15.766Z,18.70
2019-06-26T22:10:44.530Z,18.60
2019-06-26T22:13:13.285Z,18.50
2019-06-26T22:15:42.234Z,18.50
2019-06-26T22:18:10.974Z,18.50
2019-06-26T22:20:39.818Z,18.50
2019-06-26T22:23:08.646Z,18.50
2019-06-26T22:25:50.438Z,18.50
2019-06-26T22:28:07.871Z,18.50
2019-06-26T22:30:36.695Z,18.50
2019-06-26T22:33:05.518Z,18.50
2019-06-26T22:35:34.411Z,18.50
2019-06-26T22:38:03.240Z,18.50
2019-06-26T22:40:32.068Z,18.50
2019-06-26T22:43:00.744Z,18.40
2019-06-26T22:45:29.586Z,18.40
2019-06-26T22:47:58.268Z,18.40
2019-06-26T22:50:27.180Z,18.30
2019-06-26T22:52:56.074Z,18.40
2019-06-26T22:55:26.568Z,18.40
2019-06-26T22:57:55.366Z,18.40
2019-06-26T23:00:24.205Z,18.40
2019-06-26T23:02:53.089Z,18.40
2019-06-26T23:05:21.836Z,18.40
2019-06-26T23:07:50.890Z,18.40
2019-06-26T23:10:19.969Z,18.40
2019-06-26T23:12:48.797Z,18.40
2019-06-26T23:15:17.859Z,18.40
2019-06-26T23:17:46.708Z,18.40
2019-06-26T23:20:15.561Z,18.50
2019-06-26T23:22:44.329Z,18.50
2019-06-26T23:25:13.180Z,18.50
2019-06-26T23:27:42.091Z,18.50
2019-06-26T23:30:13.825Z,18.50
2019-06-26T23:32:43.822Z,18.40
2019-06-26T23:35:14.174Z,18.40
2019-06-26T23:37:43.113Z,18.40
2019-06-26T23:40:11.980Z,18.40
2019-06-26T23:42:40.775Z,18.40
2019-06-26T23:45:12.175Z,18.50
2019-06-26T23:47:40.979Z,18.50
2019-06-26T23:50:10.030Z,18.40
2019-06-26T23:52:38.982Z,18.30
2019-06-26T23:55:07.865Z,18.40
2019-06-26T23:57:41.427Z,18.40
